Terminal Aerodrome Forecast
Issued by NWS Norman, OK

Home | Current Version | Previous Version | Text Only | Print | Product List | Glossary On
Versions: 1 2 3 4 5 6 7 8 9 10 11 12 13 14 15 16 17 18 19 20 21 22 23 24 25 26 27 28 29 30 31 32 33 34 35 36 37 38 39 40 41 42
000
FTUS44 KOUN 282320
TAFOKC
TAF
KOKC 282320Z 2900/2924 13010KT P6SM FEW015 SCT030 BKN100
     FM290500 15010KT P6SM VCSH SCT025 BKN050
      TEMPO 2905/2907 3SM -TSRA BKN025CB
     FM290800 11010KT P6SM VCSH BKN025
      TEMPO 2909/2912 VRB14G25KT 3SM -TSRA BR BKN025CB
     FM291400 18013KT P6SM BKN100 PROB30 2918/2922 5SM -TSRA
      BKN050CB=

USA.gov is the U.S. government's official web portal to all federal, state and local government web resources and services.